createdAt,value
2023-02-07T00:00:22.751Z,12.70
2023-02-07T00:02:50.162Z,10.70
2023-02-07T00:05:17.669Z,11.10
2023-02-07T00:07:45.711Z,12.10
2023-02-07T00:10:12.846Z,13.00
2023-02-07T00:12:40.157Z,10.30
2023-02-07T00:15:07.648Z,13.80
2023-02-07T00:17:35.226Z,10.50
2023-02-07T00:20:02.403Z,11.43
2023-02-07T00:22:29.636Z,14.50
2023-02-07T00:24:56.743Z,12.95
2023-02-07T00:27:24.021Z,17.30
2023-02-07T00:29:51.551Z,18.90
2023-02-07T00:32:18.727Z,16.27
2023-02-07T00:34:47.366Z,13.23
2023-02-07T00:37:14.722Z,14.02
2023-02-07T00:39:41.900Z,14.45
2023-02-07T00:42:09.100Z,12.80
2023-02-07T00:44:36.412Z,9.57
2023-02-07T00:47:03.529Z,15.23
2023-02-07T00:49:30.816Z,13.70
2023-02-07T00:51:58.020Z,12.95
2023-02-07T00:54:25.337Z,13.57
2023-02-07T00:56:52.503Z,18.58
2023-02-07T00:59:19.767Z,16.38
2023-02-07T01:01:46.991Z,16.20
2023-02-07T01:04:14.092Z,17.33
2023-02-07T01:06:41.401Z,10.30
2023-02-07T01:09:08.558Z,14.25
2023-02-07T01:11:36.014Z,13.98
2023-02-07T01:14:03.543Z,15.80
2023-02-07T01:16:32.720Z,15.43
2023-02-07T01:21:27.934Z,15.80
2023-02-07T01:23:56.689Z,10.70
2023-02-07T01:26:24.790Z,16.35
2023-02-07T01:28:51.969Z,13.20
2023-02-07T01:31:19.456Z,17.20
2023-02-07T01:33:46.662Z,14.82
2023-02-07T01:36:15.022Z,17.88
2023-02-07T01:38:43.036Z,16.85
2023-02-07T01:41:10.646Z,16.00
2023-02-07T01:43:53.538Z,12.68
2023-02-07T01:46:20.759Z,14.85
2023-02-07T01:48:48.152Z,12.60
2023-02-07T01:51:15.602Z,12.20
2023-02-07T01:53:42.940Z,14.88
2023-02-07T01:56:17.652Z,13.70
2023-02-07T01:58:53.444Z,14.55
2023-02-07T02:01:26.416Z,13.98
2023-02-07T02:03:55.674Z,14.43
2023-02-07T02:06:23.797Z,14.48
2023-02-07T02:08:52.603Z,12.90
2023-02-07T02:11:34.502Z,19.63
2023-02-07T02:14:04.397Z,10.07
2023-02-07T02:16:36.911Z,12.82
2023-02-07T02:19:23.317Z,13.18
2023-02-07T02:21:53.578Z,15.18
2023-02-07T02:24:32.658Z,11.30
2023-02-07T02:27:04.287Z,15.68
2023-02-07T02:29:34.575Z,12.55
2023-02-07T02:32:20.370Z,18.40
2023-02-07T02:34:48.256Z,11.65
2023-02-07T02:37:33.872Z,15.07
2023-02-07T02:40:05.572Z,15.60
2023-02-07T02:42:35.078Z,20.40
2023-02-07T02:45:21.723Z,14.93
2023-02-07T02:47:50.398Z,14.65
2023-02-07T02:50:23.258Z,20.65
2023-02-07T02:52:51.482Z,17.27
2023-02-07T02:55:23.059Z,11.40
2023-02-07T02:58:10.808Z,14.77
2023-02-07T03:03:19.438Z,18.23
2023-02-07T03:06:00.476Z,15.48
2023-02-07T03:08:47.913Z,16.95
2023-02-07T03:11:16.820Z,17.52
2023-02-07T03:13:55.967Z,18.38
2023-02-07T03:16:23.245Z,17.05
2023-02-07T03:19:05.536Z,15.00
2023-02-07T03:21:32.674Z,19.27
2023-02-07T03:24:01.665Z,18.70
2023-02-07T03:26:29.823Z,16.08
2023-02-07T03:28:57.757Z,12.63
2023-02-07T03:31:26.043Z,16.98
2023-02-07T03:33:55.423Z,13.70
2023-02-07T03:36:23.473Z,13.35
2023-02-07T03:38:50.641Z,13.10
2023-02-07T03:41:22.240Z,15.88
2023-02-07T03:43:50.428Z,16.95
2023-02-07T03:46:19.592Z,14.82
2023-02-07T03:51:14.132Z,12.50
2023-02-07T03:53:41.253Z,15.13
2023-02-07T03:56:08.404Z,14.90
2023-02-07T03:58:35.564Z,16.02
2023-02-07T04:01:02.748Z,10.65
2023-02-07T04:03:30.020Z,15.68
2023-02-07T04:05:57.274Z,13.70
2023-02-07T04:08:24.374Z,15.70
2023-02-07T04:11:01.573Z,13.80
2023-02-07T04:13:28.722Z,8.95
2023-02-07T04:15:56.808Z,11.75
2023-02-07T04:18:23.997Z,10.98
2023-02-07T04:20:51.213Z,10.35
2023-02-07T04:23:18.374Z,14.63
2023-02-07T04:25:45.534Z,13.48
2023-02-07T04:28:13.060Z,12.63
2023-02-07T04:30:40.205Z,11.60
2023-02-07T04:33:07.358Z,10.40
2023-02-07T04:35:34.661Z,14.05
2023-02-07T04:38:01.802Z,12.48
2023-02-07T04:40:29.134Z,12.57
2023-02-07T04:42:56.302Z,13.48
2023-02-07T04:45:23.449Z,14.68
2023-02-07T04:47:50.793Z,11.23
2023-02-07T04:50:18.462Z,13.95
2023-02-07T04:52:45.788Z,13.88
2023-02-07T04:55:12.934Z,10.98
2023-02-07T04:57:40.068Z,11.43
2023-02-07T05:00:07.562Z,9.65
2023-02-07T05:02:34.762Z,12.73
2023-02-07T05:05:02.151Z,12.13
2023-02-07T05:07:29.278Z,11.82
2023-02-07T05:09:56.398Z,14.32
2023-02-07T05:12:23.584Z,12.30
2023-02-07T05:14:50.746Z,10.98
2023-02-07T05:17:18.084Z,12.80
2023-02-07T05:19:45.259Z,12.20
2023-02-07T05:22:12.413Z,9.55
2023-02-07T05:24:39.546Z,8.25
2023-02-07T05:27:06.697Z,8.27
2023-02-07T05:29:33.845Z,13.63
2023-02-07T05:32:19.835Z,15.10
2023-02-07T05:34:47.092Z,15.15
2023-02-07T05:37:14.350Z,11.82
2023-02-07T05:39:41.758Z,15.27
2023-02-07T05:42:08.850Z,13.45
2023-02-07T05:44:36.015Z,13.93
2023-02-07T05:47:03.178Z,14.80
2023-02-07T05:49:30.386Z,17.33
2023-02-07T05:51:57.498Z,14.23
2023-02-07T05:54:24.706Z,15.32
2023-02-07T05:56:51.883Z,16.90
2023-02-07T05:59:19.087Z,15.30
2023-02-07T06:01:46.296Z,17.20
2023-02-07T06:04:13.445Z,18.98
2023-02-07T06:06:42.017Z,16.75
2023-02-07T06:09:10.254Z,15.65
2023-02-07T06:11:37.426Z,18.13
2023-02-07T06:14:04.662Z,17.38
2023-02-07T06:16:31.784Z,20.90
2023-02-07T06:18:59.103Z,28.08
2023-02-07T06:21:34.656Z,23.23
2023-02-07T06:24:09.326Z,19.80
2023-02-07T06:26:36.591Z,24.15
2023-02-07T06:29:03.732Z,20.08
2023-02-07T06:31:30.945Z,21.30
2023-02-07T06:33:58.124Z,18.20
2023-02-07T06:36:25.336Z,23.60
2023-02-07T06:38:55.678Z,21.27
2023-02-07T06:41:23.193Z,29.52
2023-02-07T06:43:50.423Z,21.80
2023-02-07T06:46:17.659Z,26.30
2023-02-07T06:48:45.031Z,28.55
2023-02-07T06:51:12.355Z,26.58
2023-02-07T06:53:39.492Z,26.02
2023-02-07T06:56:06.743Z,29.00
2023-02-07T06:58:34.179Z,24.67
2023-02-07T07:01:05.547Z,22.33
2023-02-07T07:03:32.838Z,30.88
2023-02-07T07:06:00.355Z,23.92
2023-02-07T07:08:27.718Z,29.05
2023-02-07T07:10:55.214Z,26.13
2023-02-07T07:13:22.598Z,21.92
2023-02-07T07:15:50.015Z,28.25
2023-02-07T07:18:17.398Z,24.65
2023-02-07T07:20:44.541Z,26.00
2023-02-07T07:23:11.672Z,26.75
2023-02-07T07:25:39.150Z,25.73
2023-02-07T07:28:06.613Z,26.90
2023-02-07T07:30:33.931Z,25.42
2023-02-07T07:33:01.126Z,22.92
2023-02-07T07:35:28.879Z,24.92
2023-02-07T07:37:56.081Z,23.48
2023-02-07T07:40:23.365Z,28.63
2023-02-07T07:42:50.506Z,25.83
2023-02-07T07:45:17.636Z,30.42
2023-02-07T07:47:44.761Z,27.58
2023-02-07T07:50:12.145Z,26.35
2023-02-07T07:52:42.067Z,27.58
2023-02-07T07:55:09.614Z,27.73
2023-02-07T07:57:36.854Z,27.27
2023-02-07T08:00:04.755Z,25.83
2023-02-07T08:02:32.815Z,31.92
2023-02-07T08:05:00.390Z,34.45
2023-02-07T08:07:27.455Z,27.60
2023-02-07T08:09:54.671Z,28.58
2023-02-07T08:12:21.779Z,32.78
2023-02-07T08:14:49.091Z,29.85
2023-02-07T08:17:16.393Z,28.48
2023-02-07T08:19:43.566Z,30.95
2023-02-07T08:22:10.730Z,33.30
2023-02-07T08:24:37.905Z,29.77
2023-02-07T08:27:05.310Z,30.20
2023-02-07T08:29:32.601Z,24.48
2023-02-07T08:31:59.918Z,28.20
2023-02-07T08:34:28.795Z,29.67
2023-02-07T08:36:56.003Z,18.25
2023-02-07T08:39:23.202Z,25.25
2023-02-07T08:41:50.401Z,25.95
2023-02-07T08:44:17.529Z,29.48
2023-02-07T08:46:44.683Z,30.85
2023-02-07T08:49:11.935Z,29.35
2023-02-07T08:51:39.510Z,27.75
2023-02-07T08:54:06.919Z,25.95
2023-02-07T08:56:34.054Z,26.38
2023-02-07T08:59:01.322Z,27.92
2023-02-07T09:01:28.568Z,26.50
2023-02-07T09:03:56.782Z,23.52
2023-02-07T09:06:24.896Z,27.08
2023-02-07T09:08:52.133Z,25.08
2023-02-07T09:11:19.429Z,26.08
2023-02-07T09:13:46.621Z,28.00
2023-02-07T09:16:14.635Z,25.13
2023-02-07T09:18:42.253Z,30.42
2023-02-07T09:21:09.533Z,25.65
2023-02-07T09:23:37.118Z,21.08
2023-02-07T09:26:05.349Z,20.42
2023-02-07T09:28:32.552Z,20.15
2023-02-07T09:30:59.789Z,17.65
2023-02-07T09:33:27.064Z,18.00
2023-02-07T09:35:55.035Z,21.23
2023-02-07T09:38:25.853Z,19.73
2023-02-07T09:40:54.057Z,17.25
2023-02-07T09:43:29.357Z,19.23
2023-02-07T09:46:02.320Z,17.40
2023-02-07T09:48:48.256Z,17.75
2023-02-07T09:51:16.535Z,17.92
2023-02-07T09:53:46.744Z,20.08
2023-02-07T09:56:19.180Z,18.00
2023-02-07T09:58:52.709Z,18.25
2023-02-07T10:01:25.227Z,20.48
2023-02-07T10:03:56.904Z,16.67
2023-02-07T10:06:27.157Z,18.60
2023-02-07T10:08:56.858Z,21.08
2023-02-07T10:11:23.968Z,18.95
2023-02-07T10:13:51.156Z,18.45
2023-02-07T10:16:19.456Z,17.15
2023-02-07T10:18:49.317Z,19.30
2023-02-07T10:21:35.178Z,20.20
2023-02-07T10:24:21.213Z,19.17
2023-02-07T10:26:59.805Z,20.10
2023-02-07T10:29:29.941Z,18.95
2023-02-07T10:32:00.303Z,18.88
2023-02-07T10:34:36.157Z,16.38
2023-02-07T10:37:12.991Z,16.95
2023-02-07T10:39:42.642Z,17.48
2023-02-07T10:42:17.018Z,15.80
2023-02-07T10:44:44.673Z,15.20
2023-02-07T10:47:18.611Z,16.10
2023-02-07T10:49:48.613Z,16.65
2023-02-07T10:52:24.110Z,19.10
2023-02-07T10:54:55.410Z,13.95
2023-02-07T10:57:22.753Z,17.08
2023-02-07T10:59:50.763Z,16.52
2023-02-07T11:02:26.995Z,15.02
2023-02-07T11:04:54.340Z,13.20
2023-02-07T11:07:21.879Z,11.40
2023-02-07T11:09:49.672Z,9.98
2023-02-07T11:12:20.118Z,10.45
2023-02-07T11:15:04.827Z,11.23
2023-02-07T11:17:33.020Z,11.02
2023-02-07T11:20:04.294Z,12.88
2023-02-07T11:22:31.609Z,13.13
2023-02-07T11:25:06.349Z,10.25
2023-02-07T11:27:38.716Z,12.30
2023-02-07T11:30:10.112Z,11.85
2023-02-07T11:32:38.412Z,13.35
2023-02-07T11:35:09.388Z,14.82
2023-02-07T11:37:42.025Z,11.88
2023-02-07T11:40:27.875Z,10.68
2023-02-07T11:43:00.046Z,13.80
2023-02-07T11:45:28.557Z,11.82
2023-02-07T11:47:57.452Z,12.38
2023-02-07T11:50:44.747Z,14.07
2023-02-07T11:53:24.681Z,9.85
2023-02-07T11:55:54.490Z,13.40
2023-02-07T11:58:24.604Z,11.52
2023-02-07T12:00:51.909Z,11.48
2023-02-07T12:03:24.941Z,10.05
2023-02-07T12:05:54.452Z,9.50
2023-02-07T12:08:26.596Z,9.70
2023-02-07T12:10:56.064Z,12.93
2023-02-07T12:13:27.923Z,14.95
2023-02-07T12:16:03.060Z,9.77
2023-02-07T12:18:32.437Z,12.55
2023-02-07T12:21:16.366Z,11.70
2023-02-07T12:23:46.419Z,10.70
2023-02-07T12:26:17.757Z,12.32
2023-02-07T12:28:48.576Z,11.15
2023-02-07T12:31:23.908Z,12.48
2023-02-07T12:33:55.823Z,12.35
2023-02-07T12:36:37.050Z,11.10
2023-02-07T12:41:40.097Z,9.30
2023-02-07T12:44:07.386Z,8.80
2023-02-07T12:46:40.453Z,11.85
2023-02-07T12:49:28.688Z,9.02
2023-02-07T12:52:10.157Z,8.00
2023-02-07T12:54:48.921Z,10.52
2023-02-07T12:57:20.154Z,9.52
2023-02-07T12:59:47.823Z,10.30
2023-02-07T13:02:21.019Z,11.38
2023-02-07T13:04:48.120Z,9.98
2023-02-07T13:07:15.178Z,9.18
2023-02-07T13:09:45.791Z,9.60
2023-02-07T13:12:19.059Z,10.88
2023-02-07T13:15:05.691Z,10.18
2023-02-07T13:17:35.961Z,10.90
2023-02-07T13:20:06.187Z,9.45
2023-02-07T13:22:37.558Z,8.55
2023-02-07T13:25:07.765Z,8.18
2023-02-07T13:27:35.425Z,10.45
2023-02-07T13:30:02.711Z,10.25
2023-02-07T13:32:29.970Z,8.90
2023-02-07T13:34:58.205Z,7.90
2023-02-07T13:37:29.392Z,9.45
2023-02-07T13:39:56.690Z,8.38
2023-02-07T13:42:35.054Z,9.43
2023-02-07T13:45:17.385Z,8.38
2023-02-07T13:47:44.646Z,9.38
2023-02-07T13:50:15.420Z,9.18
2023-02-07T13:52:45.528Z,7.88
2023-02-07T13:55:22.401Z,9.00
2023-02-07T13:58:08.226Z,7.53
2023-02-07T14:00:48.341Z,6.95
2023-02-07T14:03:32.191Z,7.85
2023-02-07T14:06:17.847Z,7.75
2023-02-07T14:08:45.238Z,8.65
2023-02-07T14:11:28.833Z,6.85
2023-02-07T14:14:12.198Z,6.70
2023-02-07T14:16:59.748Z,7.63
2023-02-07T14:19:45.679Z,10.57
2023-02-07T14:22:21.840Z,7.43
2023-02-07T14:25:12.482Z,9.20
2023-02-07T14:27:42.389Z,9.43
2023-02-07T14:30:12.572Z,9.90
2023-02-07T14:32:41.566Z,10.20
2023-02-07T14:35:17.938Z,11.15
2023-02-07T14:37:52.427Z,10.57
2023-02-07T14:40:21.892Z,12.82
2023-02-07T14:42:58.595Z,10.05
2023-02-07T14:45:26.463Z,9.20
2023-02-07T14:47:53.985Z,9.70
2023-02-07T14:50:24.708Z,10.68
2023-02-07T14:52:52.544Z,9.23
2023-02-07T14:55:24.868Z,9.55
2023-02-07T14:58:03.860Z,8.27
2023-02-07T15:00:34.101Z,8.60
2023-02-07T15:03:05.245Z,7.40
2023-02-07T15:05:32.936Z,8.77
2023-02-07T15:08:03.173Z,8.18
2023-02-07T15:10:32.815Z,9.82
2023-02-07T15:13:00.184Z,10.77
2023-02-07T15:15:28.811Z,12.68
2023-02-07T15:17:58.368Z,10.73
2023-02-07T15:20:30.402Z,12.75
2023-02-07T15:22:58.545Z,9.98
2023-02-07T15:25:27.845Z,10.77
2023-02-07T15:28:25.282Z,11.82
2023-02-07T15:30:56.601Z,12.40
2023-02-07T15:33:25.408Z,9.82
2023-02-07T15:35:52.731Z,14.52
2023-02-07T15:38:24.098Z,10.15
2023-02-07T15:40:52.080Z,11.18
2023-02-07T15:43:25.424Z,10.32
2023-02-07T15:46:18.938Z,19.48
2023-02-07T15:51:14.067Z,11.25
2023-02-07T15:53:41.540Z,13.57
2023-02-07T15:56:08.938Z,12.00
2023-02-07T15:58:37.222Z,10.68
2023-02-07T16:01:15.001Z,12.18
2023-02-07T16:03:45.004Z,11.35
2023-02-07T16:06:24.382Z,13.52
2023-02-07T16:08:53.368Z,19.27
2023-02-07T16:13:51.142Z,14.07
2023-02-07T16:16:20.317Z,12.45
2023-02-07T16:18:53.317Z,13.30
2023-02-07T16:21:22.459Z,12.70
2023-02-07T16:23:51.146Z,15.57
2023-02-07T16:26:20.449Z,12.98
2023-02-07T16:28:48.530Z,15.05
2023-02-07T16:31:15.799Z,13.25
2023-02-07T16:33:43.131Z,13.05
2023-02-07T16:36:13.905Z,19.88
2023-02-07T16:38:41.113Z,16.20
2023-02-07T16:41:12.215Z,17.77
2023-02-07T16:43:42.786Z,14.50
2023-02-07T16:46:11.359Z,14.20
2023-02-07T16:48:38.622Z,12.40
2023-02-07T16:51:05.987Z,17.00
2023-02-07T16:53:33.559Z,13.88
2023-02-07T16:56:00.752Z,15.25
2023-02-07T16:58:29.770Z,20.75
2023-02-07T17:03:24.392Z,17.33
2023-02-07T17:05:51.712Z,15.57
2023-02-07T17:08:27.061Z,14.35
2023-02-07T17:10:57.685Z,14.00
2023-02-07T17:13:25.242Z,13.25
2023-02-07T17:15:52.352Z,14.00
2023-02-07T17:18:20.910Z,13.23
2023-02-07T17:20:48.488Z,13.02
2023-02-07T17:23:15.846Z,17.20
2023-02-07T17:25:43.877Z,20.08
2023-02-07T17:28:13.565Z,17.25
2023-02-07T17:30:41.620Z,20.30
2023-02-07T17:33:09.480Z,19.00
2023-02-07T17:35:37.163Z,19.35
2023-02-07T17:38:04.417Z,19.58
2023-02-07T17:40:33.378Z,17.48
2023-02-07T17:43:00.551Z,20.35
2023-02-07T17:45:28.498Z,14.40
2023-02-07T17:47:58.851Z,29.98
2023-02-07T17:50:29.327Z,25.70
2023-02-07T17:52:57.093Z,24.70
2023-02-07T17:55:24.866Z,26.65
2023-02-07T17:57:51.996Z,27.58
2023-02-07T18:00:23.659Z,25.98
2023-02-07T18:02:51.129Z,21.95
2023-02-07T18:05:19.209Z,24.30
2023-02-07T18:07:47.225Z,22.02
2023-02-07T18:10:22.820Z,21.50
2023-02-07T18:12:50.097Z,36.50
2023-02-07T18:15:18.956Z,30.58
2023-02-07T18:17:50.066Z,23.83
2023-02-07T18:20:24.721Z,42.97
2023-02-07T18:22:54.517Z,32.85
2023-02-07T18:25:22.288Z,23.63
2023-02-07T18:27:51.467Z,23.50
2023-02-07T18:32:45.739Z,21.35
2023-02-07T18:35:13.033Z,20.95
2023-02-07T18:37:40.244Z,25.20
2023-02-07T18:40:07.613Z,28.02
2023-02-07T18:42:35.126Z,24.50
2023-02-07T18:45:02.573Z,28.90
2023-02-07T18:47:31.707Z,24.98
2023-02-07T18:49:58.889Z,22.38
2023-02-07T18:52:26.055Z,20.27
2023-02-07T18:54:53.341Z,25.05
2023-02-07T18:57:20.580Z,29.33
2023-02-07T18:59:47.757Z,26.25
2023-02-07T19:02:14.998Z,38.85
2023-02-07T19:04:42.312Z,39.33
2023-02-07T19:07:09.388Z,33.85
2023-02-07T19:09:36.623Z,25.35
2023-02-07T19:12:03.848Z,24.73
2023-02-07T19:14:31.990Z,22.05
2023-02-07T19:16:59.682Z,23.92
2023-02-07T19:19:28.200Z,26.17
2023-02-07T19:21:55.891Z,23.40
2023-02-07T19:24:23.593Z,25.58
2023-02-07T19:26:52.084Z,28.02
2023-02-07T19:29:24.646Z,25.65
2023-02-07T19:31:51.960Z,28.52
2023-02-07T19:34:19.331Z,42.83
2023-02-07T19:36:46.497Z,41.80
2023-02-07T19:39:13.700Z,46.63
2023-02-07T19:41:40.828Z,41.95
2023-02-07T19:44:08.063Z,40.20
2023-02-07T19:46:35.410Z,27.08
2023-02-07T19:49:02.661Z,27.23
2023-02-07T19:51:31.970Z,27.67
2023-02-07T19:53:59.792Z,24.35
2023-02-07T19:56:28.414Z,22.80
2023-02-07T19:58:56.198Z,22.38
2023-02-07T20:01:27.653Z,25.52
2023-02-07T20:03:55.981Z,23.70
2023-02-07T20:06:31.390Z,25.13
2023-02-07T20:11:25.748Z,27.85
2023-02-07T20:13:54.004Z,24.00
2023-02-07T20:16:22.454Z,28.45
2023-02-07T20:18:49.895Z,30.52
2023-02-07T20:21:18.598Z,36.53
2023-02-07T20:23:46.950Z,27.65
2023-02-07T20:26:15.434Z,27.92
2023-02-07T20:28:43.098Z,32.55
2023-02-07T20:31:11.576Z,25.08
2023-02-07T20:33:39.971Z,23.58
2023-02-07T20:36:07.673Z,24.58
2023-02-07T20:38:35.167Z,28.05
2023-02-07T20:41:05.942Z,30.90
2023-02-07T20:43:33.068Z,42.67
2023-02-07T20:46:08.175Z,23.58
2023-02-07T20:48:35.641Z,24.35
2023-02-07T20:51:10.120Z,21.42
2023-02-07T20:53:40.750Z,21.58
2023-02-07T20:56:17.219Z,24.42
2023-02-07T20:58:47.083Z,24.33
2023-02-07T21:01:21.431Z,33.08
2023-02-07T21:03:50.327Z,33.53
2023-02-07T21:06:17.941Z,26.20
2023-02-07T21:08:45.276Z,32.00
2023-02-07T21:11:12.826Z,23.00
2023-02-07T21:13:40.229Z,20.17
2023-02-07T21:16:08.591Z,17.98
2023-02-07T21:18:36.037Z,21.65
2023-02-07T21:21:07.602Z,17.75
2023-02-07T21:23:35.029Z,22.25
2023-02-07T21:26:06.347Z,28.75
2023-02-07T21:28:33.910Z,24.55
2023-02-07T21:31:09.048Z,22.80
2023-02-07T21:33:36.553Z,21.92
2023-02-07T21:36:08.155Z,24.17
2023-02-07T21:38:36.112Z,21.90
2023-02-07T21:41:04.770Z,14.50
2023-02-07T21:43:31.885Z,17.05
2023-02-07T21:46:05.835Z,14.80
2023-02-07T21:48:35.868Z,19.83
2023-02-07T21:51:10.543Z,22.13
2023-02-07T21:53:38.464Z,17.48
2023-02-07T21:56:10.682Z,16.42
2023-02-07T21:58:37.821Z,18.63
2023-02-07T22:01:08.829Z,20.83
2023-02-07T22:03:40.326Z,19.95
2023-02-07T22:06:07.821Z,20.45
2023-02-07T22:08:35.279Z,18.08
2023-02-07T22:11:06.519Z,16.25
2023-02-07T22:13:34.057Z,17.63
2023-02-07T22:16:01.601Z,19.52
2023-02-07T22:18:29.130Z,15.48
2023-02-07T22:20:56.557Z,11.77
2023-02-07T22:23:23.668Z,14.73
2023-02-07T22:25:52.823Z,14.60
2023-02-07T22:28:20.106Z,16.20
2023-02-07T22:30:48.994Z,13.77
2023-02-07T22:33:16.740Z,14.98
2023-02-07T22:35:43.998Z,14.93
2023-02-07T22:38:12.838Z,45.88
2023-02-07T22:40:41.278Z,18.75
2023-02-07T22:43:12.400Z,14.93
2023-02-07T22:45:44.290Z,15.75
2023-02-07T22:48:11.664Z,19.05
2023-02-07T22:50:39.075Z,13.77
2023-02-07T22:53:06.262Z,15.35
2023-02-07T22:55:33.653Z,14.63
2023-02-07T22:58:00.763Z,13.93
2023-02-07T23:00:27.958Z,13.00
2023-02-07T23:02:55.140Z,15.30
2023-02-07T23:05:22.248Z,15.35
2023-02-07T23:07:49.562Z,16.50
2023-02-07T23:10:16.849Z,15.98
2023-02-07T23:12:44.223Z,15.45
2023-02-07T23:15:11.496Z,13.10
2023-02-07T23:17:38.991Z,14.93
2023-02-07T23:20:06.569Z,14.10
2023-02-07T23:22:36.429Z,15.23
2023-02-07T23:25:03.667Z,16.27
2023-02-07T23:27:30.946Z,12.77
2023-02-07T23:29:58.198Z,13.18
2023-02-07T23:32:25.395Z,17.10
2023-02-07T23:34:52.513Z,13.68
2023-02-07T23:37:22.392Z,13.98
2023-02-07T23:39:49.575Z,13.77
2023-02-07T23:42:16.652Z,13.75
2023-02-07T23:44:43.802Z,15.35
2023-02-07T23:47:11.148Z,15.43
2023-02-07T23:49:38.321Z,16.40
2023-02-07T23:52:05.540Z,13.52
2023-02-07T23:54:32.698Z,16.27
2023-02-07T23:56:59.871Z,16.42
2023-02-07T23:59:27.402Z,15.40
